BAW253 MYNN-MBPV
Flight info
| Callsign | BAW253 |
|---|---|
| Flight time | 0h 51m |
| Altitude | 35000 |
| Route | BOSAR DCT SOLEI |
| Aircraft | B77W/H-SDE1E2E3FGHIJ2J3J4J5M1RWXY/LB1D1 |
Departure
| Time | 2026-05-07 07:57 |
|---|---|
| Airport | Lynden Pindling International Airport (MYNN) |
Arrival
| Time | 2026-05-07 08:49 |
|---|---|
| Airport | Providenciales International Airport (MBPV) |
| Time | Latitude | Longitude | Altitude | Speed | Heading |
|---|---|---|---|---|---|
| 2026-05-07 07:52 | 25.05024 | -77.46885 | 22 ft | 0 kts | 352° |
| 2026-05-07 07:53 | 25.05021 | -77.46885 | 22 ft | 0 kts | 352° |
| 2026-05-07 07:53 | 25.05007 | -77.46882 | 25 ft | 0 kts | 352° |
| 2026-05-07 07:53 | 25.04993 | -77.46880 | 24 ft | 0 kts | 352° |
| 2026-05-07 07:53 | 25.04980 | -77.46878 | 25 ft | 0 kts | 336° |
| 2026-05-07 07:54 | 25.04971 | -77.46866 | 26 ft | 0 kts | 278° |
| 2026-05-07 07:54 | 25.04972 | -77.46859 | 27 ft | 0 kts | 262° |
| 2026-05-07 07:55 | 25.04951 | -77.46896 | 25 ft | 14 kts | 222° |
| 2026-05-07 07:55 | 25.04856 | -77.46933 | 26 ft | 15 kts | 190° |
| 2026-05-07 07:55 | 25.04790 | -77.47011 | 27 ft | 15 kts | 251° |
| 2026-05-07 07:56 | 25.04717 | -77.47047 | 26 ft | 15 kts | 146° |
| 2026-05-07 07:56 | 25.04690 | -77.47019 | 30 ft | 0 kts | 134° |
| 2026-05-07 07:56 | 25.04680 | -77.47007 | 31 ft | 17 kts | 134° |
| 2026-05-07 07:57 | 25.04342 | -77.46633 | 27 ft | 129 kts | 135° |
| 2026-05-07 07:57 | 25.03447 | -77.45655 | 368 ft | 216 kts | 135° |
| 2026-05-07 07:57 | 25.02379 | -77.44405 | 1949 ft | 226 kts | 129° |
| 2026-05-07 07:57 | 25.01394 | -77.42955 | 3250 ft | 240 kts | 126° |
| 2026-05-07 07:58 | 25.00420 | -77.41418 | 4235 ft | 249 kts | 125° |
| 2026-05-07 07:58 | 24.99411 | -77.39816 | 5110 ft | 260 kts | 126° |
| 2026-05-07 07:58 | 24.98360 | -77.38157 | 5938 ft | 273 kts | 126° |
| 2026-05-07 07:58 | 24.97247 | -77.36412 | 6820 ft | 282 kts | 126° |
| 2026-05-07 07:59 | 24.96101 | -77.34626 | 7775 ft | 287 kts | 126° |
| 2026-05-07 07:59 | 24.94937 | -77.32818 | 8772 ft | 291 kts | 125° |
| 2026-05-07 07:59 | 24.93754 | -77.30987 | 9773 ft | 295 kts | 124° |
| 2026-05-07 07:59 | 24.92550 | -77.29129 | 10594 ft | 304 kts | 124° |
| 2026-05-07 08:00 | 24.91269 | -77.27152 | 10940 ft | 332 kts | 124° |
| 2026-05-07 08:00 | 24.89864 | -77.24985 | 11169 ft | 361 kts | 124° |
| 2026-05-07 08:00 | 24.88375 | -77.22697 | 11866 ft | 372 kts | 123° |
| 2026-05-07 08:00 | 24.86853 | -77.20363 | 12732 ft | 378 kts | 123° |
| 2026-05-07 08:01 | 24.85314 | -77.18007 | 13714 ft | 380 kts | 122° |
| 2026-05-07 08:01 | 24.83779 | -77.15657 | 14518 ft | 386 kts | 122° |
| 2026-05-07 08:01 | 24.82194 | -77.13228 | 15162 ft | 396 kts | 123° |
| 2026-05-07 08:01 | 24.80568 | -77.10739 | 15812 ft | 405 kts | 123° |
| 2026-05-07 08:02 | 24.78906 | -77.08196 | 16514 ft | 412 kts | 123° |
| 2026-05-07 08:02 | 24.77209 | -77.05603 | 17201 ft | 419 kts | 123° |
| 2026-05-07 08:02 | 24.75489 | -77.02976 | 17878 ft | 427 kts | 123° |
| 2026-05-07 08:02 | 24.73735 | -77.00297 | 18517 ft | 434 kts | 124° |
| 2026-05-07 08:03 | 24.71958 | -76.97585 | 19141 ft | 440 kts | 123° |
| 2026-05-07 08:03 | 24.70155 | -76.94837 | 19798 ft | 444 kts | 123° |
| 2026-05-07 08:03 | 24.68339 | -76.92068 | 20458 ft | 449 kts | 123° |
| 2026-05-07 08:03 | 24.66526 | -76.89304 | 21093 ft | 454 kts | 123° |
| 2026-05-07 08:04 | 24.64665 | -76.86470 | 21718 ft | 460 kts | 123° |
| 2026-05-07 08:04 | 24.62775 | -76.83614 | 22322 ft | 465 kts | 124° |
| 2026-05-07 08:04 | 24.60800 | -76.80757 | 22962 ft | 471 kts | 125° |
| 2026-05-07 08:04 | 24.58768 | -76.77895 | 23578 ft | 476 kts | 126° |
| 2026-05-07 08:05 | 24.56725 | -76.75045 | 24092 ft | 481 kts | 126° |
| 2026-05-07 08:05 | 24.54646 | -76.72148 | 24652 ft | 484 kts | 126° |
| 2026-05-07 08:05 | 24.52559 | -76.69233 | 25235 ft | 486 kts | 126° |
| 2026-05-07 08:05 | 24.50466 | -76.66297 | 25773 ft | 490 kts | 126° |
| 2026-05-07 08:06 | 24.48359 | -76.63336 | 26322 ft | 493 kts | 126° |
| 2026-05-07 08:06 | 24.46241 | -76.60353 | 26868 ft | 497 kts | 126° |
| 2026-05-07 08:06 | 24.44131 | -76.57381 | 27390 ft | 500 kts | 126° |
| 2026-05-07 08:06 | 24.41985 | -76.54358 | 27919 ft | 503 kts | 127° |
| 2026-05-07 08:07 | 24.39817 | -76.51306 | 28449 ft | 507 kts | 127° |
| 2026-05-07 08:07 | 24.37642 | -76.48247 | 28952 ft | 510 kts | 127° |
| 2026-05-07 08:07 | 24.35446 | -76.45162 | 29450 ft | 514 kts | 127° |
| 2026-05-07 08:07 | 24.33234 | -76.42056 | 29941 ft | 517 kts | 127° |
| 2026-05-07 08:08 | 24.31011 | -76.38935 | 30353 ft | 520 kts | 127° |
| 2026-05-07 08:08 | 24.28801 | -76.35837 | 30738 ft | 523 kts | 127° |
| 2026-05-07 08:08 | 24.26561 | -76.32697 | 31202 ft | 522 kts | 127° |
| 2026-05-07 08:08 | 24.24322 | -76.29562 | 31751 ft | 520 kts | 127° |
| 2026-05-07 08:09 | 24.22097 | -76.26449 | 32334 ft | 518 kts | 127° |
| 2026-05-07 08:09 | 24.19878 | -76.23345 | 32881 ft | 516 kts | 127° |
| 2026-05-07 08:09 | 24.17669 | -76.20258 | 33407 ft | 514 kts | 127° |
| 2026-05-07 08:09 | 24.15463 | -76.17176 | 33908 ft | 513 kts | 127° |
| 2026-05-07 08:10 | 24.13260 | -76.14100 | 34348 ft | 512 kts | 127° |
| 2026-05-07 08:10 | 24.11059 | -76.11029 | 34710 ft | 513 kts | 127° |
| 2026-05-07 08:10 | 24.08883 | -76.07994 | 35069 ft | 513 kts | 127° |
| 2026-05-07 08:10 | 24.06681 | -76.04924 | 35418 ft | 513 kts | 127° |
| 2026-05-07 08:11 | 24.04476 | -76.01854 | 35777 ft | 513 kts | 127° |
| 2026-05-07 08:11 | 24.02275 | -75.98790 | 36142 ft | 513 kts | 127° |
| 2026-05-07 08:11 | 24.00068 | -75.95721 | 36481 ft | 513 kts | 127° |
| 2026-05-07 08:11 | 23.97862 | -75.92654 | 36809 ft | 513 kts | 127° |
| 2026-05-07 08:12 | 23.95653 | -75.89584 | 37017 ft | 516 kts | 127° |
| 2026-05-07 08:12 | 23.91185 | -75.83382 | 37032 ft | 517 kts | 127° |
| 2026-05-07 08:13 | 23.86765 | -75.77256 | 37036 ft | 510 kts | 127° |
| 2026-05-07 08:13 | 23.82399 | -75.71212 | 37044 ft | 509 kts | 127° |
| 2026-05-07 08:14 | 23.78007 | -75.65137 | 37045 ft | 509 kts | 127° |
| 2026-05-07 08:14 | 23.73605 | -75.59057 | 37040 ft | 510 kts | 127° |
| 2026-05-07 08:15 | 23.69190 | -75.52966 | 37040 ft | 511 kts | 127° |
| 2026-05-07 08:15 | 23.64794 | -75.46909 | 37040 ft | 512 kts | 127° |
| 2026-05-07 08:16 | 23.60362 | -75.40810 | 37040 ft | 513 kts | 127° |
| 2026-05-07 08:16 | 23.55925 | -75.34712 | 37041 ft | 513 kts | 127° |
| 2026-05-07 08:17 | 23.51484 | -75.28614 | 37042 ft | 513 kts | 127° |
| 2026-05-07 08:17 | 23.47072 | -75.22565 | 37041 ft | 513 kts | 127° |
| 2026-05-07 08:18 | 23.42631 | -75.16482 | 37032 ft | 513 kts | 126° |
| 2026-05-07 08:18 | 23.38187 | -75.10403 | 37040 ft | 512 kts | 126° |
| 2026-05-07 08:19 | 23.33745 | -75.04334 | 37040 ft | 512 kts | 126° |
| 2026-05-07 08:19 | 23.29301 | -74.98271 | 37037 ft | 511 kts | 126° |
| 2026-05-07 08:20 | 23.24891 | -74.92259 | 37040 ft | 511 kts | 126° |
| 2026-05-07 08:20 | 23.20452 | -74.86215 | 37037 ft | 511 kts | 126° |
| 2026-05-07 08:21 | 23.16008 | -74.80173 | 37038 ft | 511 kts | 126° |
| 2026-05-07 08:21 | 23.11561 | -74.74133 | 37039 ft | 511 kts | 126° |
| 2026-05-07 08:22 | 23.07115 | -74.68101 | 37034 ft | 511 kts | 126° |
| 2026-05-07 08:22 | 23.02701 | -74.62121 | 37039 ft | 511 kts | 126° |
| 2026-05-07 08:23 | 22.98252 | -74.56100 | 37042 ft | 511 kts | 126° |
| 2026-05-07 08:23 | 22.93828 | -74.50120 | 36669 ft | 505 kts | 126° |
| 2026-05-07 08:23 | 22.91632 | -74.47155 | 36246 ft | 501 kts | 126° |
| 2026-05-07 08:24 | 22.89456 | -74.44220 | 35837 ft | 496 kts | 126° |
| 2026-05-07 08:24 | 22.87309 | -74.41323 | 35417 ft | 491 kts | 126° |
| 2026-05-07 08:24 | 22.85171 | -74.38441 | 34992 ft | 488 kts | 126° |
| 2026-05-07 08:24 | 22.83051 | -74.35584 | 34548 ft | 484 kts | 126° |
| 2026-05-07 08:25 | 22.81655 | -74.33703 | 34264 ft | 482 kts | 126° |
| 2026-05-07 08:25 | 22.79555 | -74.30875 | 33793 ft | 479 kts | 126° |
| 2026-05-07 08:25 | 22.76799 | -74.27167 | 33172 ft | 475 kts | 126° |
| 2026-05-07 08:25 | 22.74738 | -74.24395 | 32734 ft | 471 kts | 126° |
| 2026-05-07 08:26 | 22.71335 | -74.19822 | 32024 ft | 465 kts | 126° |
| 2026-05-07 08:26 | 22.69283 | -74.17067 | 31598 ft | 462 kts | 126° |
| 2026-05-07 08:26 | 22.67273 | -74.14370 | 31169 ft | 459 kts | 126° |
| 2026-05-07 08:27 | 22.65298 | -74.11720 | 30754 ft | 456 kts | 126° |
| 2026-05-07 08:27 | 22.63304 | -74.09046 | 30328 ft | 454 kts | 126° |
| 2026-05-07 08:27 | 22.61319 | -74.06386 | 29857 ft | 452 kts | 126° |
| 2026-05-07 08:27 | 22.59346 | -74.03743 | 29378 ft | 450 kts | 126° |
| 2026-05-07 08:28 | 22.57385 | -74.01117 | 28930 ft | 447 kts | 126° |
| 2026-05-07 08:28 | 22.55438 | -73.98512 | 28493 ft | 444 kts | 126° |
| 2026-05-07 08:28 | 22.53501 | -73.95922 | 28057 ft | 441 kts | 126° |
| 2026-05-07 08:28 | 22.51576 | -73.93350 | 27626 ft | 438 kts | 126° |
| 2026-05-07 08:29 | 22.49683 | -73.90820 | 27208 ft | 436 kts | 126° |
| 2026-05-07 08:29 | 22.47776 | -73.88273 | 26792 ft | 433 kts | 126° |
| 2026-05-07 08:29 | 22.45876 | -73.85737 | 26373 ft | 431 kts | 126° |
| 2026-05-07 08:29 | 22.43990 | -73.83221 | 25948 ft | 429 kts | 126° |
| 2026-05-07 08:30 | 22.42131 | -73.80741 | 25539 ft | 427 kts | 126° |
| 2026-05-07 08:30 | 22.40256 | -73.78242 | 25124 ft | 426 kts | 126° |
| 2026-05-07 08:30 | 22.38389 | -73.75754 | 24694 ft | 425 kts | 126° |
| 2026-05-07 08:30 | 22.36529 | -73.73277 | 24273 ft | 424 kts | 126° |
| 2026-05-07 08:31 | 22.34693 | -73.70833 | 23873 ft | 423 kts | 126° |
| 2026-05-07 08:31 | 22.32840 | -73.68366 | 23396 ft | 422 kts | 126° |
| 2026-05-07 08:31 | 22.30992 | -73.65909 | 22943 ft | 420 kts | 126° |
| 2026-05-07 08:31 | 22.29151 | -73.63463 | 22506 ft | 418 kts | 126° |
| 2026-05-07 08:32 | 22.27323 | -73.61034 | 22080 ft | 415 kts | 127° |
| 2026-05-07 08:32 | 22.25505 | -73.58621 | 21651 ft | 413 kts | 127° |
| 2026-05-07 08:32 | 22.23697 | -73.56221 | 21231 ft | 410 kts | 127° |
| 2026-05-07 08:32 | 22.21900 | -73.53837 | 20819 ft | 408 kts | 127° |
| 2026-05-07 08:33 | 22.20112 | -73.51465 | 20408 ft | 406 kts | 127° |
| 2026-05-07 08:33 | 22.18333 | -73.49107 | 19980 ft | 404 kts | 127° |
| 2026-05-07 08:33 | 22.16582 | -73.46787 | 19576 ft | 402 kts | 127° |
| 2026-05-07 08:33 | 22.14815 | -73.44445 | 19146 ft | 401 kts | 127° |
| 2026-05-07 08:34 | 22.13055 | -73.42116 | 18719 ft | 400 kts | 127° |
| 2026-05-07 08:34 | 22.11301 | -73.39795 | 18294 ft | 398 kts | 127° |
| 2026-05-07 08:34 | 22.09553 | -73.37482 | 17818 ft | 397 kts | 128° |
| 2026-05-07 08:34 | 22.07814 | -73.35183 | 17363 ft | 394 kts | 128° |
| 2026-05-07 08:35 | 22.06086 | -73.32899 | 16945 ft | 392 kts | 128° |
| 2026-05-07 08:35 | 22.04369 | -73.30630 | 16528 ft | 390 kts | 128° |
| 2026-05-07 08:35 | 22.02658 | -73.28372 | 16095 ft | 387 kts | 128° |
| 2026-05-07 08:35 | 22.00957 | -73.26127 | 15678 ft | 386 kts | 128° |
| 2026-05-07 08:36 | 21.99265 | -73.23895 | 15253 ft | 384 kts | 128° |
| 2026-05-07 08:36 | 21.97577 | -73.21668 | 14836 ft | 382 kts | 129° |
| 2026-05-07 08:36 | 21.95897 | -73.19453 | 14402 ft | 381 kts | 129° |
| 2026-05-07 08:36 | 21.94215 | -73.17236 | 13969 ft | 380 kts | 129° |
| 2026-05-07 08:37 | 21.92568 | -73.15065 | 13511 ft | 379 kts | 129° |
| 2026-05-07 08:37 | 21.90900 | -73.12869 | 13050 ft | 377 kts | 129° |
| 2026-05-07 08:37 | 21.89239 | -73.10683 | 12611 ft | 375 kts | 129° |
| 2026-05-07 08:37 | 21.87592 | -73.08516 | 12178 ft | 373 kts | 129° |
| 2026-05-07 08:38 | 21.85951 | -73.06357 | 11764 ft | 371 kts | 129° |
| 2026-05-07 08:38 | 21.84318 | -73.04211 | 11308 ft | 369 kts | 129° |
| 2026-05-07 08:38 | 21.82766 | -73.02079 | 10884 ft | 362 kts | 122° |
| 2026-05-07 08:38 | 21.81774 | -72.99611 | 10477 ft | 359 kts | 103° |
| 2026-05-07 08:39 | 21.81499 | -72.96978 | 10309 ft | 347 kts | 92° |
| 2026-05-07 08:39 | 21.81372 | -72.94411 | 10159 ft | 338 kts | 93° |
| 2026-05-07 08:39 | 21.81226 | -72.91912 | 9947 ft | 332 kts | 94° |
| 2026-05-07 08:39 | 21.81079 | -72.89500 | 9683 ft | 311 kts | 94° |
| 2026-05-07 08:40 | 21.80941 | -72.87251 | 9309 ft | 292 kts | 94° |
| 2026-05-07 08:40 | 21.80809 | -72.85118 | 8882 ft | 280 kts | 94° |
| 2026-05-07 08:40 | 21.80678 | -72.83027 | 8570 ft | 280 kts | 94° |
| 2026-05-07 08:40 | 21.80549 | -72.80959 | 8239 ft | 281 kts | 94° |
| 2026-05-07 08:41 | 21.80417 | -72.78860 | 7917 ft | 282 kts | 94° |
| 2026-05-07 08:41 | 21.80284 | -72.76756 | 7581 ft | 282 kts | 94° |
| 2026-05-07 08:41 | 21.80150 | -72.74635 | 7253 ft | 283 kts | 94° |
| 2026-05-07 08:41 | 21.80015 | -72.72513 | 6924 ft | 284 kts | 94° |
| 2026-05-07 08:42 | 21.79881 | -72.70410 | 6588 ft | 275 kts | 94° |
| 2026-05-07 08:42 | 21.79753 | -72.68409 | 6247 ft | 260 kts | 94° |
| 2026-05-07 08:42 | 21.79633 | -72.66524 | 5939 ft | 246 kts | 94° |
| 2026-05-07 08:42 | 21.79515 | -72.64687 | 5679 ft | 250 kts | 94° |
| 2026-05-07 08:43 | 21.79391 | -72.62755 | 5407 ft | 263 kts | 94° |
| 2026-05-07 08:43 | 21.79266 | -72.60806 | 5097 ft | 265 kts | 94° |
| 2026-05-07 08:43 | 21.79139 | -72.58831 | 4788 ft | 264 kts | 94° |
| 2026-05-07 08:43 | 21.79012 | -72.56859 | 4468 ft | 264 kts | 94° |
| 2026-05-07 08:44 | 21.78884 | -72.54884 | 4150 ft | 263 kts | 95° |
| 2026-05-07 08:44 | 21.78757 | -72.52922 | 3861 ft | 263 kts | 94° |
| 2026-05-07 08:44 | 21.78631 | -72.50966 | 3603 ft | 260 kts | 94° |
| 2026-05-07 08:44 | 21.78506 | -72.49050 | 3448 ft | 252 kts | 94° |
| 2026-05-07 08:45 | 21.78385 | -72.47199 | 3337 ft | 243 kts | 94° |
| 2026-05-07 08:45 | 21.78279 | -72.45424 | 3129 ft | 239 kts | 94° |
| 2026-05-07 08:45 | 21.78193 | -72.43645 | 2883 ft | 236 kts | 93° |
| 2026-05-07 08:45 | 21.78109 | -72.41886 | 2642 ft | 234 kts | 93° |
| 2026-05-07 08:46 | 21.78025 | -72.40139 | 2316 ft | 232 kts | 94° |
| 2026-05-07 08:46 | 21.77943 | -72.38448 | 1999 ft | 218 kts | 93° |
| 2026-05-07 08:46 | 21.77867 | -72.36885 | 1663 ft | 201 kts | 94° |
| 2026-05-07 08:46 | 21.77796 | -72.35445 | 1387 ft | 185 kts | 93° |
| 2026-05-07 08:47 | 21.77732 | -72.34114 | 1143 ft | 170 kts | 94° |
| 2026-05-07 08:47 | 21.77671 | -72.32928 | 939 ft | 147 kts | 92° |
| 2026-05-07 08:47 | 21.77624 | -72.31908 | 741 ft | 129 kts | 93° |
| 2026-05-07 08:47 | 21.77578 | -72.30946 | 572 ft | 134 kts | 94° |
| 2026-05-07 08:48 | 21.77516 | -72.29919 | 416 ft | 137 kts | 92° |
| 2026-05-07 08:48 | 21.77460 | -72.28892 | 206 ft | 138 kts | 93° |
| 2026-05-07 08:48 | 21.77420 | -72.27859 | 40 ft | 136 kts | 93° |
| 2026-05-07 08:48 | 21.77386 | -72.27027 | 33 ft | 66 kts | 92° |
| 2026-05-07 08:49 | 21.77359 | -72.26598 | 30 ft | 49 kts | 93° |
| 2026-05-07 08:49 | 21.77353 | -72.26342 | 28 ft | 18 kts | 81° |
| 2026-05-07 08:49 | 21.77447 | -72.26290 | 27 ft | 9 kts | 6° |
| 2026-05-07 08:49 | 21.77494 | -72.26274 | 27 ft | 7 kts | 48° |
| 2026-05-07 08:50 | 21.77501 | -72.26258 | 27 ft | 0 kts | 65° |